createdAt,value
2019-01-02T00:00:01.889Z,102919.27
2019-01-02T00:02:33.034Z,102934.38
2019-01-02T00:05:03.766Z,102934.52
2019-01-02T00:07:34.844Z,102932.70
2019-01-02T00:10:05.716Z,102930.02
2019-01-02T00:12:36.446Z,102936.56
2019-01-02T00:15:08.146Z,102945.93
2019-01-02T00:17:38.915Z,102937.69
2019-01-02T00:20:12.467Z,102943.39
2019-01-02T00:22:43.241Z,102953.05
2019-01-02T00:25:14.000Z,102947.75
2019-01-02T00:27:44.999Z,102947.36
2019-01-02T00:30:15.701Z,102949.07
2019-01-02T00:32:46.895Z,102952.23
2019-01-02T00:35:17.632Z,102957.14
2019-01-02T00:37:48.713Z,102957.37
2019-01-02T00:40:19.456Z,102953.20
2019-01-02T00:42:50.499Z,102950.64
2019-01-02T00:45:22.468Z,102952.37
2019-01-02T00:47:53.768Z,102955.93
2019-01-02T00:50:24.520Z,102963.38
2019-01-02T00:52:55.309Z,102965.52
2019-01-02T00:55:26.043Z,102961.41
2019-01-02T00:57:56.844Z,102963.09
2019-01-02T01:00:30.855Z,102959.41
2019-01-02T01:03:01.605Z,102963.30
2019-01-02T01:05:32.463Z,102965.39
2019-01-02T01:08:03.274Z,102968.38
2019-01-02T01:10:33.986Z,102961.92
2019-01-02T01:13:04.775Z,102958.58
2019-01-02T01:15:35.635Z,102966.00
2019-01-02T01:18:06.396Z,102971.80
2019-01-02T01:20:37.576Z,102970.70
2019-01-02T01:23:08.350Z,102965.11
2019-01-02T01:25:39.620Z,102973.25
2019-01-02T01:28:10.362Z,102970.41
2019-01-02T01:30:41.111Z,102967.55
2019-01-02T01:33:12.045Z,102959.39
2019-01-02T01:35:42.756Z,102969.56
2019-01-02T01:38:13.532Z,102981.59
2019-01-02T01:40:44.697Z,102973.53
2019-01-02T01:43:16.614Z,102973.30
2019-01-02T01:45:47.474Z,102979.84
2019-01-02T01:48:18.251Z,102978.11
2019-01-02T01:50:48.983Z,102981.98
2019-01-02T01:53:20.147Z,102990.74
2019-01-02T01:55:50.884Z,102989.00
2019-01-02T01:58:21.643Z,102988.80
2019-01-02T02:00:52.571Z,102988.58
2019-01-02T02:03:23.369Z,102990.80
2019-01-02T02:05:54.092Z,102998.41
2019-01-02T02:08:25.273Z,102993.11
2019-01-02T02:10:55.985Z,102994.43
2019-01-02T02:13:26.739Z,103001.36
2019-01-02T02:15:57.471Z,102999.54
2019-01-02T02:18:28.303Z,103007.77
2019-01-02T02:20:59.300Z,103006.89
2019-01-02T02:23:30.051Z,103012.09
2019-01-02T02:26:00.792Z,103014.81
2019-01-02T02:28:31.892Z,103014.91
2019-01-02T02:31:02.604Z,103016.58
2019-01-02T02:33:33.645Z,103024.37
2019-01-02T02:36:04.762Z,103018.85
2019-01-02T02:38:35.698Z,103028.50
2019-01-02T02:41:06.915Z,103027.51
2019-01-02T02:43:38.042Z,103010.59
2019-01-02T02:46:08.773Z,103017.90
2019-01-02T02:48:39.799Z,103010.79
2019-01-02T02:51:10.784Z,103010.72
2019-01-02T02:53:41.805Z,103019.84
2019-01-02T02:56:12.837Z,103015.61
2019-01-02T02:58:43.871Z,103018.97
2019-01-02T03:01:14.878Z,103010.72
2019-01-02T03:03:45.830Z,103007.77
2019-01-02T03:06:16.847Z,103001.06
2019-01-02T03:08:47.707Z,103004.62
2019-01-02T03:11:18.425Z,103015.98
2019-01-02T03:13:49.461Z,103012.77
2019-01-02T03:16:20.464Z,103013.86
2019-01-02T03:18:51.697Z,103015.19
2019-01-02T03:21:22.834Z,103015.81
2019-01-02T03:23:53.801Z,103016.70
2019-01-02T03:26:24.526Z,103018.92
2019-01-02T03:28:55.262Z,103024.04
2019-01-02T03:31:26.346Z,103030.66
2019-01-02T03:33:57.402Z,103022.72
2019-01-02T03:36:28.189Z,103025.31
2019-01-02T03:38:58.915Z,103023.81
2019-01-02T03:41:29.650Z,103036.70
2019-01-02T03:44:00.367Z,103032.38
2019-01-02T03:46:31.111Z,103028.83
2019-01-02T03:49:01.896Z,103030.98
2019-01-02T03:51:32.605Z,103038.59
2019-01-02T03:54:03.322Z,103036.56
2019-01-02T03:56:34.049Z,103036.73
2019-01-02T03:59:04.929Z,103040.08
2019-01-02T04:01:35.640Z,103031.45
2019-01-02T04:04:06.395Z,103039.28
2019-01-02T04:06:37.210Z,103033.80
2019-01-02T04:09:11.283Z,103043.25
2019-01-02T04:11:42.002Z,103042.95
2019-01-02T04:14:12.821Z,103036.61
2019-01-02T04:16:43.571Z,103038.09
2019-01-02T04:19:14.320Z,103038.52
2019-01-02T04:21:45.041Z,103041.62
2019-01-02T04:24:15.782Z,103040.03
2019-01-02T04:26:46.559Z,103042.48
2019-01-02T04:29:17.280Z,103049.95
2019-01-02T04:31:48.047Z,103048.40
2019-01-02T04:34:18.820Z,103041.78
2019-01-02T04:36:49.643Z,103044.20
2019-01-02T04:39:20.455Z,103043.41
2019-01-02T04:41:51.263Z,103041.55
2019-01-02T04:44:22.004Z,103046.62
2019-01-02T04:46:52.776Z,103047.17
2019-01-02T04:49:23.520Z,103053.36
2019-01-02T04:51:54.261Z,103045.34
2019-01-02T04:54:24.986Z,103045.98
2019-01-02T04:56:55.850Z,103052.53
2019-01-02T04:59:26.559Z,103041.78
2019-01-02T05:01:57.384Z,103043.70
2019-01-02T05:04:28.132Z,103052.30
2019-01-02T05:06:58.895Z,103052.03
2019-01-02T05:09:29.616Z,103053.75
2019-01-02T05:12:00.359Z,103053.85
2019-01-02T05:14:31.072Z,103056.13
2019-01-02T05:17:01.985Z,103061.00
2019-01-02T05:19:32.718Z,103067.23
2019-01-02T05:22:03.528Z,103066.61
2019-01-02T05:24:34.233Z,103062.57
2019-01-02T05:27:05.040Z,103059.00
2019-01-02T05:29:35.738Z,103069.45
2019-01-02T05:32:06.754Z,103072.97
2019-01-02T05:34:37.519Z,103081.09
2019-01-02T05:37:08.243Z,103078.95
2019-01-02T05:39:38.960Z,103085.89
2019-01-02T05:42:09.731Z,103097.39
2019-01-02T05:44:40.519Z,103091.91
2019-01-02T05:47:11.264Z,103086.42
2019-01-02T05:49:42.002Z,103092.17
2019-01-02T05:52:12.782Z,103096.50
2019-01-02T05:54:43.571Z,103089.69
2019-01-02T05:57:14.392Z,103090.25
2019-01-02T05:59:45.094Z,103098.02
2019-01-02T06:02:15.928Z,103095.18
2019-01-02T06:04:46.656Z,103099.01
2019-01-02T06:07:17.480Z,103097.16
2019-01-02T06:09:48.233Z,103096.72
2019-01-02T06:12:19.045Z,103101.91
2019-01-02T06:14:49.791Z,103111.33
2019-01-02T06:17:20.600Z,103115.81
2019-01-02T06:19:51.422Z,103113.43
2019-01-02T06:22:22.295Z,103116.59
2019-01-02T06:24:53.048Z,103115.66
2019-01-02T06:27:23.789Z,103120.45
2019-01-02T06:29:54.632Z,103121.58
2019-01-02T06:32:25.365Z,103126.30
2019-01-02T06:34:56.075Z,103125.74
2019-01-02T06:37:26.821Z,103130.20
2019-01-02T06:39:57.549Z,103132.98
2019-01-02T06:42:28.423Z,103138.96
2019-01-02T06:44:59.133Z,103136.86
2019-01-02T06:47:29.862Z,103142.58
2019-01-02T06:50:00.572Z,103136.89
2019-01-02T06:52:31.354Z,103136.03
2019-01-02T06:55:02.078Z,103132.65
2019-01-02T06:57:32.818Z,103135.53
2019-01-02T07:00:03.689Z,103145.91
2019-01-02T07:02:34.564Z,103151.30
2019-01-02T07:05:05.585Z,103154.48
2019-01-02T07:07:36.497Z,103166.27
2019-01-02T07:10:07.804Z,103163.87
2019-01-02T07:12:38.584Z,103170.34
2019-01-02T07:15:09.973Z,103179.89
2019-01-02T07:17:40.754Z,103182.87
2019-01-02T07:20:12.009Z,103180.62
2019-01-02T07:22:42.764Z,103180.16
2019-01-02T07:25:13.486Z,103180.08
2019-01-02T07:27:44.317Z,103189.23
2019-01-02T07:30:19.443Z,103188.31
2019-01-02T07:32:50.349Z,103199.13
2019-01-02T07:36:31.664Z,103197.41
2019-01-02T07:40:12.096Z,103207.76
2019-01-02T07:43:34.380Z,103198.64
2019-01-02T07:46:44.089Z,103213.73
2019-01-02T07:49:54.286Z,103206.19
2019-01-02T07:53:24.862Z,103219.95
2019-01-02T07:57:00.341Z,103229.39
2019-01-02T08:00:28.810Z,103226.61
2019-01-02T08:03:50.094Z,103219.16
2019-01-02T08:07:30.583Z,103223.88
2019-01-02T08:11:01.277Z,103234.53
2019-01-02T08:15:03.222Z,103227.73
2019-01-02T08:18:04.434Z,103228.07
2019-01-02T08:21:31.214Z,103238.65
2019-01-02T08:24:43.739Z,103239.23
2019-01-02T08:28:44.032Z,103238.90
2019-01-02T08:31:56.710Z,103243.36
2019-01-02T08:35:22.671Z,103243.06
2019-01-02T08:39:04.522Z,103241.98
2019-01-02T08:42:25.119Z,103250.30
2019-01-02T08:46:00.374Z,103249.03
2019-01-02T08:49:41.054Z,103260.05
2019-01-02T08:53:03.810Z,103269.85
2019-01-02T08:56:34.106Z,103272.83
2019-01-02T09:00:06.819Z,103276.95
2019-01-02T09:03:24.944Z,103272.14
2019-01-02T09:06:41.053Z,103281.06
2019-01-02T09:10:00.940Z,103277.44
2019-01-02T09:14:02.562Z,103281.16
2019-01-02T09:17:49.377Z,103276.50
2019-01-02T09:21:36.536Z,103281.95
2019-01-02T09:25:10.853Z,103302.28
2019-01-02T09:28:43.958Z,103300.41
2019-01-02T09:32:11.249Z,103299.28
2019-01-02T09:35:40.601Z,103305.45
2019-01-02T09:39:25.670Z,103321.57
2019-01-02T09:42:48.968Z,103319.81
2019-01-02T09:46:29.026Z,103316.34
2019-01-02T09:49:38.081Z,103314.37
2019-01-02T09:53:12.672Z,103317.72
2019-01-02T09:56:27.746Z,103319.80
2019-01-02T09:59:53.689Z,103319.37
2019-01-02T10:03:44.017Z,103323.64
2019-01-02T10:06:59.591Z,103323.64
2019-01-02T10:10:21.717Z,103327.41
2019-01-02T10:13:50.005Z,103327.16
2019-01-02T10:17:12.713Z,103331.81
2019-01-02T10:20:30.460Z,103325.58
2019-01-02T10:24:07.128Z,103323.09
2019-01-02T10:27:31.068Z,103320.68
2019-01-02T10:30:54.802Z,103333.58
2019-01-02T10:34:13.607Z,103321.06
2019-01-02T10:37:36.647Z,103317.53
2019-01-02T10:41:01.466Z,103326.83
2019-01-02T10:44:34.941Z,103324.38
2019-01-02T10:48:03.347Z,103327.08
2019-01-02T10:51:11.296Z,103333.16
2019-01-02T10:54:47.523Z,103328.29
2019-01-02T10:58:25.562Z,103333.58
2019-01-02T11:01:33.790Z,103335.30
2019-01-02T11:04:58.751Z,103327.66
2019-01-02T11:08:34.100Z,103334.66
2019-01-02T11:12:13.253Z,103341.27
2019-01-02T11:16:07.384Z,103331.61
2019-01-02T11:19:39.858Z,103334.48
2019-01-02T11:23:21.110Z,103340.30
2019-01-02T11:26:48.349Z,103335.20
2019-01-02T11:30:10.177Z,103325.93
2019-01-02T11:33:31.443Z,103325.95
2019-01-02T11:37:17.741Z,103323.90
2019-01-02T11:40:42.713Z,103325.66
2019-01-02T11:44:21.425Z,103317.58
2019-01-02T11:46:51.651Z,103323.07
2019-01-02T11:49:22.439Z,103319.94
2019-01-02T11:51:53.189Z,103329.68
2019-01-02T11:54:24.078Z,103319.31
2019-01-02T11:56:54.875Z,103318.45
2019-01-02T11:59:25.643Z,103315.27
2019-01-02T12:01:56.460Z,103312.99
2019-01-02T12:04:27.237Z,103320.70
2019-01-02T12:06:57.956Z,103318.32
2019-01-02T12:09:28.671Z,103314.91
2019-01-02T12:11:59.672Z,103313.84
2019-01-02T12:14:30.432Z,103317.36
2019-01-02T12:17:01.497Z,103312.03
2019-01-02T12:19:32.266Z,103307.11
2019-01-02T12:22:03.043Z,103322.16
2019-01-02T12:24:33.767Z,103318.28
2019-01-02T12:27:04.524Z,103314.01
2019-01-02T12:29:35.271Z,103318.84
2019-01-02T12:32:06.056Z,103313.20
2019-01-02T12:34:36.796Z,103314.13
2019-01-02T12:37:07.604Z,103319.61
2019-01-02T12:39:38.360Z,103316.56
2019-01-02T12:42:09.165Z,103322.08
2019-01-02T12:44:39.927Z,103330.29
2019-01-02T12:47:10.866Z,103313.14
2019-01-02T12:49:41.677Z,103321.41
2019-01-02T12:52:12.628Z,103329.31
2019-01-02T12:54:43.365Z,103333.21
2019-01-02T12:57:14.103Z,103323.89
2019-01-02T12:59:44.853Z,103334.72
2019-01-02T13:03:14.745Z,103320.44
2019-01-02T13:06:32.389Z,103327.11
2019-01-02T13:09:40.099Z,103328.64
2019-01-02T13:13:07.335Z,103325.52
2019-01-02T13:16:03.327Z,103335.28
2019-01-02T13:19:46.548Z,103326.91
2019-01-02T13:23:06.457Z,103321.52
2019-01-02T13:26:18.982Z,103326.41
2019-01-02T13:29:48.614Z,103339.06
2019-01-02T13:33:10.159Z,103337.66
2019-01-02T13:36:53.727Z,103344.23
2019-01-02T13:40:04.311Z,103344.80
2019-01-02T13:42:57.186Z,103338.71
2019-01-02T13:45:45.643Z,103359.73
2019-01-02T13:49:11.643Z,103361.69
2019-01-02T13:51:50.119Z,103366.82
2019-01-02T13:54:21.194Z,103369.77
2019-01-02T13:56:52.032Z,103367.98
2019-01-02T13:59:22.773Z,103374.91
2019-01-02T14:01:53.563Z,103383.76
2019-01-02T14:04:24.386Z,103385.45
2019-01-02T14:06:55.463Z,103384.91
2019-01-02T14:09:26.402Z,103391.94
2019-01-02T14:11:57.226Z,103389.16
2019-01-02T14:14:27.975Z,103388.16
2019-01-02T14:16:58.934Z,103390.18
2019-01-02T14:19:29.697Z,103388.66
2019-01-02T14:22:00.445Z,103390.84
2019-01-02T14:24:31.205Z,103393.09
2019-01-02T14:27:01.984Z,103393.73
2019-01-02T14:29:32.872Z,103397.00
2019-01-02T14:32:03.658Z,103396.44
2019-01-02T14:34:34.404Z,103401.74
2019-01-02T14:37:05.204Z,103395.12
2019-01-02T14:39:35.998Z,103401.34
2019-01-02T14:42:06.803Z,103399.66
2019-01-02T14:44:37.604Z,103407.44
2019-01-02T14:47:08.491Z,103401.91
2019-01-02T14:49:39.275Z,103399.12
2019-01-02T14:52:10.205Z,103406.96
2019-01-02T14:54:40.975Z,103408.92
2019-01-02T14:57:11.785Z,103408.59
2019-01-02T14:59:42.515Z,103410.06
2019-01-02T15:02:13.287Z,103413.34
2019-01-02T15:04:44.028Z,103408.94
2019-01-02T15:07:14.772Z,103413.84
2019-01-02T15:09:45.510Z,103423.61
2019-01-02T15:12:16.315Z,103418.25
2019-01-02T15:14:47.258Z,103414.23
2019-01-02T15:17:17.995Z,103420.16
2019-01-02T15:19:48.886Z,103417.72
2019-01-02T15:22:19.703Z,103423.37
2019-01-02T15:24:50.431Z,103429.49
2019-01-02T15:27:21.372Z,103426.94
2019-01-02T15:29:52.288Z,103430.53
2019-01-02T15:32:23.107Z,103437.00
2019-01-02T15:34:53.983Z,103430.08
2019-01-02T15:37:24.771Z,103434.94
2019-01-02T15:39:55.519Z,103441.75
2019-01-02T15:42:26.321Z,103446.36
2019-01-02T15:45:00.275Z,103450.78
2019-01-02T15:47:31.066Z,103442.59
2019-01-02T15:50:01.842Z,103447.50
2019-01-02T15:52:32.620Z,103456.43
2019-01-02T15:55:03.372Z,103453.63
2019-01-02T15:57:34.126Z,103459.08
2019-01-02T16:00:06.143Z,103459.85
2019-01-02T16:02:36.927Z,103465.53
2019-01-02T16:05:07.776Z,103464.27
2019-01-02T16:07:38.566Z,103469.98
2019-01-02T16:10:11.199Z,103471.47
2019-01-02T16:12:46.120Z,103478.19
2019-01-02T16:15:14.428Z,103473.66
2019-01-02T16:17:45.194Z,103481.84
2019-01-02T16:20:15.960Z,103481.47
2019-01-02T16:22:46.853Z,103482.41
2019-01-02T16:25:17.588Z,103488.44
2019-01-02T16:27:48.389Z,103491.16
2019-01-02T16:30:19.143Z,103490.83
2019-01-02T16:32:49.979Z,103500.89
2019-01-02T16:35:20.701Z,103505.23
2019-01-02T16:37:51.497Z,103508.71
2019-01-02T16:40:22.269Z,103506.06
2019-01-02T16:42:53.066Z,103504.97
2019-01-02T16:45:23.819Z,103503.65
2019-01-02T16:47:54.708Z,103500.36
2019-01-02T16:50:25.587Z,103505.20
2019-01-02T16:52:56.363Z,103511.05
2019-01-02T16:55:27.166Z,103513.92
2019-01-02T16:57:58.052Z,103512.98
2019-01-02T17:00:28.784Z,103517.77
2019-01-02T17:02:59.569Z,103523.41
2019-01-02T17:05:30.354Z,103521.47
2019-01-02T17:08:01.203Z,103514.07
2019-01-02T17:10:31.950Z,103517.96
2019-01-02T17:13:02.696Z,103514.89
2019-01-02T17:15:33.426Z,103505.27
2019-01-02T17:18:04.296Z,103511.57
2019-01-02T17:20:35.055Z,103522.00
2019-01-02T17:23:05.925Z,103530.67
2019-01-02T17:25:36.703Z,103535.88
2019-01-02T17:28:07.503Z,103530.50
2019-01-02T17:30:38.236Z,103534.80
2019-01-02T17:33:09.055Z,103530.98
2019-01-02T17:35:39.855Z,103532.98
2019-01-02T17:38:10.630Z,103531.05
2019-01-02T17:40:41.405Z,103540.64
2019-01-02T17:43:12.190Z,103532.95
2019-01-02T17:45:42.923Z,103534.77
2019-01-02T17:48:13.705Z,103541.34
2019-01-02T17:50:44.472Z,103532.84
2019-01-02T17:53:15.209Z,103543.75
2019-01-02T17:55:46.044Z,103550.81
2019-01-02T17:58:16.864Z,103542.55
2019-01-02T18:00:47.651Z,103543.56
2019-01-02T18:03:18.518Z,103547.03
2019-01-02T18:05:49.261Z,103551.86
2019-01-02T18:08:20.032Z,103549.06
2019-01-02T18:10:50.798Z,103549.89
2019-01-02T18:13:21.741Z,103553.55
2019-01-02T18:15:52.522Z,103551.21
2019-01-02T18:18:23.313Z,103564.92
2019-01-02T18:20:54.061Z,103563.11
2019-01-02T18:23:24.882Z,103560.36
2019-01-02T18:25:55.682Z,103563.93
2019-01-02T18:28:26.453Z,103564.14
2019-01-02T18:30:57.198Z,103566.14
2019-01-02T18:33:27.986Z,103562.91
2019-01-02T18:35:58.868Z,103566.56
2019-01-02T18:38:29.803Z,103570.23
2019-01-02T18:41:00.566Z,103567.41
2019-01-02T18:43:31.467Z,103576.48
2019-01-02T18:46:02.308Z,103576.30
2019-01-02T18:48:33.148Z,103577.70
2019-01-02T18:51:04.013Z,103584.48
2019-01-02T18:53:34.877Z,103581.97
2019-01-02T18:56:05.653Z,103583.31
2019-01-02T18:58:36.408Z,103581.22
2019-01-02T19:01:07.698Z,103589.16
2019-01-02T19:03:38.441Z,103589.39
2019-01-02T19:06:09.236Z,103591.87
2019-01-02T19:08:40.004Z,103594.39
2019-01-02T19:11:10.844Z,103594.78
2019-01-02T19:13:41.761Z,103601.83
2019-01-02T19:16:12.550Z,103600.33
2019-01-02T19:18:43.335Z,103598.42
2019-01-02T19:21:14.081Z,103600.23
2019-01-02T19:23:44.992Z,103600.41
2019-01-02T19:26:15.778Z,103600.88
2019-01-02T19:28:46.526Z,103608.21
2019-01-02T19:31:17.302Z,103605.69
2019-01-02T19:33:49.606Z,103606.72
2019-01-02T19:36:20.576Z,103605.45
2019-01-02T19:38:51.414Z,103609.84
2019-01-02T19:41:22.197Z,103613.50
2019-01-02T19:43:52.992Z,103612.09
2019-01-02T19:46:23.780Z,103611.98
2019-01-02T19:48:54.547Z,103617.31
2019-01-02T19:51:25.316Z,103622.44
2019-01-02T19:53:56.084Z,103624.77
2019-01-02T19:56:26.871Z,103617.41
2019-01-02T19:58:57.689Z,103618.70
2019-01-02T20:01:28.474Z,103609.89
2019-01-02T20:03:59.244Z,103620.22
2019-01-02T20:06:30.024Z,103615.89
2019-01-02T20:09:00.779Z,103612.48
2019-01-02T20:11:31.777Z,103607.80
2019-01-02T20:14:02.554Z,103610.36
2019-01-02T20:16:33.348Z,103603.29
2019-01-02T20:19:04.090Z,103600.81
2019-01-02T20:21:34.933Z,103598.17
2019-01-02T20:24:05.738Z,103605.87
2019-01-02T20:26:36.564Z,103602.74
2019-01-02T20:29:07.295Z,103604.19
2019-01-02T20:31:38.088Z,103606.30
2019-01-02T20:34:08.939Z,103607.89
2019-01-02T20:36:40.807Z,103609.09
2019-01-02T20:39:11.701Z,103600.93
2019-01-02T20:41:42.488Z,103601.48
2019-01-02T20:44:13.295Z,103602.38
2019-01-02T20:46:44.141Z,103597.95
2019-01-02T20:49:14.958Z,103596.63
2019-01-02T20:51:45.747Z,103595.07
2019-01-02T20:54:16.567Z,103595.87
2019-01-02T20:56:47.333Z,103597.73
2019-01-02T20:59:18.220Z,103585.72
2019-01-02T21:01:49.096Z,103587.84
2019-01-02T21:04:19.906Z,103591.23
2019-01-02T21:06:50.654Z,103589.14
2019-01-02T21:09:21.450Z,103589.34
2019-01-02T21:11:52.249Z,103587.30
2019-01-02T21:14:23.054Z,103582.56
2019-01-02T21:16:53.810Z,103586.22
2019-01-02T21:19:24.642Z,103583.92
2019-01-02T21:21:55.405Z,103580.34
2019-01-02T21:24:26.202Z,103578.06
2019-01-02T21:26:57.017Z,103583.64
2019-01-02T21:29:27.751Z,103577.45
2019-01-02T21:31:58.559Z,103579.13
2019-01-02T21:34:29.347Z,103584.77
2019-01-02T21:37:00.099Z,103581.32
2019-01-02T21:39:30.886Z,103586.29
2019-01-02T21:42:01.670Z,103585.64
2019-01-02T21:44:32.421Z,103581.38
2019-01-02T21:47:03.177Z,103582.34
2019-01-02T21:49:33.976Z,103580.05
2019-01-02T21:52:04.727Z,103578.42
2019-01-02T21:54:35.576Z,103574.78
2019-01-02T21:57:06.422Z,103579.73
2019-01-02T21:59:37.241Z,103570.51
2019-01-02T22:02:08.019Z,103574.64
2019-01-02T22:04:38.764Z,103575.30
2019-01-02T22:07:09.497Z,103573.36
2019-01-02T22:09:40.266Z,103569.05
2019-01-02T22:12:11.041Z,103574.33
2019-01-02T22:14:41.808Z,103580.75
2019-01-02T22:17:12.535Z,103582.37
2019-01-02T22:19:43.337Z,103590.11
2019-01-02T22:22:14.084Z,103586.81
2019-01-02T22:24:44.864Z,103580.57
2019-01-02T22:27:15.680Z,103585.53
2019-01-02T22:29:46.474Z,103584.88
2019-01-02T22:32:17.233Z,103586.19
2019-01-02T22:34:48.259Z,103587.82
2019-01-02T22:37:19.004Z,103585.19
2019-01-02T22:39:49.771Z,103585.19
2019-01-02T22:42:20.608Z,103581.55
2019-01-02T22:44:51.384Z,103588.83
2019-01-02T22:47:22.118Z,103582.37
2019-01-02T22:49:52.888Z,103588.83
2019-01-02T22:52:23.745Z,103586.33
2019-01-02T22:54:54.556Z,103588.45
2019-01-02T22:57:25.338Z,103593.41
2019-01-02T22:59:56.155Z,103589.77
2019-01-02T23:02:44.930Z,103587.12
2019-01-02T23:05:49.493Z,103586.78
2019-01-02T23:08:37.656Z,103585.45
2019-01-02T23:11:27.272Z,103591.52
2019-01-02T23:14:15.650Z,103587.88
2019-01-02T23:17:03.991Z,103594.64
2019-01-02T23:19:52.291Z,103588.22
2019-01-02T23:22:57.184Z,103592.01
2019-01-02T23:25:44.987Z,103597.42
2019-01-02T23:28:33.250Z,103610.42
2019-01-02T23:31:21.034Z,103602.21
2019-01-02T23:34:09.384Z,103600.58
2019-01-02T23:36:59.013Z,103595.96
2019-01-02T23:39:48.585Z,103595.45
2019-01-02T23:42:43.007Z,103588.71
2019-01-02T23:45:31.331Z,103592.36
2019-01-02T23:48:19.296Z,103597.42
2019-01-02T23:51:14.764Z,103598.07
2019-01-02T23:54:19.518Z,103595.61
2019-01-02T23:57:07.142Z,103596.27
2019-01-02T23:59:56.819Z,103595.96
